Time;durP1;ratioP1;P1;durP2;ratioP2;P2;SDS_P1;SDS_P2;PMS_P1;PMS_P2;Temp;Humidity;BMP_temperature;BMP_pressure;BME280_temperature;BME280_humidity;BME280_pressure;Samples;Min_cycle;Max_cycle;Signal;HPM_P1;HPM_P2
2024/01/30 00:00:45;;;;;;;635.17;574.13;;;26.90;99.90;;;;;;5054769;28;20029;-70
2024/01/30 00:03:11;;;;;;;669.20;603.25;;;26.90;99.90;;;;;;5054827;28;20474;-70
2024/01/30 00:05:37;;;;;;;640.28;578.38;;;27.00;99.90;;;;;;5054809;28;20025;-68
2024/01/30 00:08:04;;;;;;;635.60;573.33;;;27.00;99.90;;;;;;5053985;28;20077;-69
2024/01/30 00:10:31;;;;;;;623.42;565.40;;;27.00;99.90;;;;;;5054764;28;20036;-69
2024/01/30 00:12:58;;;;;;;615.88;557.40;;;27.00;99.90;;;;;;5054262;28;20036;-69
2024/01/30 00:15:24;;;;;;;607.67;552.20;;;27.00;99.90;;;;;;5054564;28;20021;-68
2024/01/30 00:17:52;;;;;;;699.78;629.30;;;27.00;99.90;;;;;;5054595;28;20017;-68
2024/01/30 00:20:18;;;;;;;768.00;687.80;;;27.10;99.90;;;;;;5054792;28;20462;-68
2024/01/30 00:22:45;;;;;;;715.83;645.65;;;27.10;99.90;;;;;;5054500;28;20385;-69
2024/01/30 00:25:11;;;;;;;716.33;646.67;;;27.10;99.90;;;;;;5054328;28;20021;-69
2024/01/30 00:27:38;;;;;;;702.53;635.10;;;27.10;99.90;;;;;;5054259;28;20025;-69
2024/01/30 00:30:06;;;;;;;728.83;655.65;;;27.10;99.90;;;;;;5054448;28;20029;-69
2024/01/30 00:32:33;;;;;;;724.35;651.50;;;27.20;99.90;;;;;;5053940;28;20385;-68
2024/01/30 00:34:59;;;;;;;695.85;625.70;;;27.20;99.90;;;;;;5054095;28;20473;-69
2024/01/30 00:37:26;;;;;;;678.53;612.47;;;27.20;99.90;;;;;;5054176;28;20021;-69
2024/01/30 00:39:52;;;;;;;668.67;604.08;;;27.20;99.90;;;;;;5053846;28;20108;-69
2024/01/30 00:42:19;;;;;;;647.50;584.85;;;27.20;99.90;;;;;;5053874;28;20028;-68
2024/01/30 00:44:46;;;;;;;721.88;647.97;;;27.20;99.90;;;;;;5054171;28;20036;-68
2024/01/30 00:47:12;;;;;;;729.13;653.60;;;27.30;99.90;;;;;;5054076;28;20033;-71
2024/01/30 00:49:39;;;;;;;870.83;776.60;;;27.30;99.90;;;;;;5053838;28;20049;-69
2024/01/30 00:52:05;;;;;;;676.78;609.97;;;27.40;99.90;;;;;;5053933;28;20075;-68
2024/01/30 00:54:32;;;;;;;659.85;596.30;;;27.40;99.90;;;;;;5053815;28;20021;-69
2024/01/30 00:56:59;;;;;;;690.28;623.05;;;27.40;99.90;;;;;;5053718;28;20027;-69
2024/01/30 00:59:25;;;;;;;735.15;663.42;;;27.40;99.90;;;;;;5053895;28;20031;-70
2024/01/30 01:01:52;;;;;;;660.25;597.05;;;27.40;99.90;;;;;;5053582;28;20421;-69
2024/01/30 01:04:18;;;;;;;678.70;613.70;;;27.40;99.90;;;;;;5053791;28;20438;-70
2024/01/30 01:06:45;;;;;;;730.97;656.25;;;27.40;99.90;;;;;;5053452;28;20484;-69
2024/01/30 01:09:12;;;;;;;796.03;714.92;;;27.40;99.90;;;;;;5053607;28;20076;-70
2024/01/30 01:11:39;;;;;;;790.00;707.35;;;27.30;99.90;;;;;;5053448;28;20051;-70
2024/01/30 01:14:05;;;;;;;803.85;720.78;;;27.40;99.90;;;;;;5053448;28;20478;-70
2024/01/30 01:16:37;;;;;;;807.78;722.92;;;27.40;99.90;;;;;;5053328;28;20067;-70
2024/01/30 01:19:04;;;;;;;783.67;700.42;;;27.30;99.90;;;;;;5035401;28;20382;-69
2024/01/30 01:21:30;;;;;;;830.22;743.13;;;27.30;99.90;;;;;;5053315;28;20049;-69
2024/01/30 01:23:57;;;;;;;843.75;751.55;;;27.30;99.90;;;;;;5053413;28;20051;-69
2024/01/30 01:26:23;;;;;;;845.53;757.90;;;27.40;99.90;;;;;;5053135;28;20029;-69
2024/01/30 01:28:50;;;;;;;801.72;718.85;;;27.50;99.90;;;;;;5053344;28;20029;-70
2024/01/30 01:31:17;;;;;;;644.13;583.75;;;27.50;99.90;;;;;;5053285;28;20461;-69
2024/01/30 01:33:44;;;;;;;727.85;656.70;;;27.50;99.90;;;;;;5053114;28;20492;-69
2024/01/30 01:36:10;;;;;;;725.42;652.40;;;27.50;99.90;;;;;;5053391;28;20040;-69
2024/01/30 01:38:37;;;;;;;733.47;661.20;;;27.60;99.90;;;;;;5053418;28;20284;-69
2024/01/30 01:41:03;;;;;;;698.58;630.80;;;27.60;99.90;;;;;;5053350;28;20382;-69
2024/01/30 01:43:30;;;;;;;695.72;629.08;;;27.60;99.90;;;;;;5053327;28;20029;-68
2024/01/30 01:45:56;;;;;;;632.80;572.53;;;27.60;99.90;;;;;;5053363;28;20304;-69
2024/01/30 01:48:23;;;;;;;667.45;601.40;;;27.70;99.90;;;;;;5053719;28;20466;-68
2024/01/30 01:50:49;;;;;;;691.20;625.22;;;27.70;99.90;;;;;;5053223;28;20025;-69
2024/01/30 01:53:16;;;;;;;635.05;575.22;;;27.80;99.90;;;;;;5053110;28;20493;-69
2024/01/30 01:55:43;;;;;;;625.45;566.67;;;27.90;99.90;;;;;;5053458;28;20175;-69
2024/01/30 01:58:12;;;;;;;600.30;545.13;;;27.90;99.90;;;;;;5055927;28;20049;-69
2024/01/30 02:00:41;;;;;;;604.67;550.00;;;28.00;99.90;;;;;;5057990;28;20033;-69
2024/01/30 02:03:11;;;;;;;449.52;409.90;;;28.10;99.90;;;;;;5056488;28;20025;-69
2024/01/30 02:05:39;;;;;;;502.17;457.33;;;28.10;99.90;;;;;;5057231;28;20029;-70
2024/01/30 02:08:08;;;;;;;480.75;438.50;;;28.10;99.90;;;;;;5057381;28;20053;-68
2024/01/30 02:10:35;;;;;;;492.27;449.30;;;28.10;99.90;;;;;;5057436;28;20036;-68
2024/01/30 02:13:01;;;;;;;302.95;277.23;;;28.20;99.90;;;;;;5057230;28;20029;-66
2024/01/30 02:15:29;;;;;;;428.20;391.45;;;28.20;99.90;;;;;;5056969;28;20017;-66
2024/01/30 02:17:55;;;;;;;285.35;261.58;;;28.30;99.90;;;;;;5056846;28;20033;-66
2024/01/30 02:20:24;;;;;;;237.10;218.32;;;28.30;99.90;;;;;;5057306;28;20029;-66
2024/01/30 02:22:54;;;;;;;209.98;194.23;;;28.30;99.90;;;;;;5057366;28;20362;-66
2024/01/30 02:25:20;;;;;;;245.13;226.30;;;28.30;99.90;;;;;;5056780;28;20029;-66
2024/01/30 02:27:47;;;;;;;179.13;165.27;;;28.30;99.90;;;;;;5056985;28;20028;-65
2024/01/30 02:30:14;;;;;;;194.10;180.18;;;28.30;99.90;;;;;;5056664;28;20021;-66
2024/01/30 02:32:40;;;;;;;182.65;169.13;;;28.40;99.90;;;;;;5056440;28;20021;-64
2024/01/30 02:35:07;;;;;;;214.20;199.05;;;28.40;99.90;;;;;;5056726;28;20033;-66
2024/01/30 02:37:33;;;;;;;173.13;160.73;;;28.50;99.90;;;;;;5056576;28;20052;-65
2024/01/30 02:40:00;;;;;;;166.70;153.93;;;28.50;99.90;;;;;;5056613;28;20025;-66
2024/01/30 02:42:26;;;;;;;180.40;166.52;;;28.50;99.90;;;;;;5055180;28;20021;-65
2024/01/30 02:44:53;;;;;;;182.07;169.07;;;28.60;99.90;;;;;;5046216;28;20029;-64
2024/01/30 02:47:19;;;;;;;172.27;159.55;;;28.70;99.90;;;;;;5056397;28;20021;-68
2024/01/30 02:49:45;;;;;;;173.18;161.15;;;28.90;99.90;;;;;;5056221;28;20025;-66
2024/01/30 02:52:12;;;;;;;181.30;168.32;;;29.00;99.90;;;;;;5056060;28;20075;-67
2024/01/30 02:54:38;;;;;;;168.80;156.55;;;29.10;99.90;;;;;;5056210;28;20067;-67
2024/01/30 02:57:05;;;;;;;177.77;165.13;;;29.20;99.90;;;;;;5056188;28;20025;-71
2024/01/30 02:59:35;;;;;;;188.90;175.68;;;29.20;99.90;;;;;;5056165;28;20017;-67
2024/01/30 03:02:02;;;;;;;160.48;149.15;;;29.20;99.90;;;;;;5055710;28;20048;-65
2024/01/30 03:04:29;;;;;;;168.43;155.75;;;29.20;99.90;;;;;;5056341;28;20369;-65
2024/01/30 03:06:56;;;;;;;160.73;149.02;;;29.20;99.90;;;;;;5056009;28;20028;-66
2024/01/30 03:09:23;;;;;;;146.55;135.75;;;29.20;99.90;;;;;;5054525;28;20049;-66
2024/01/30 03:11:49;;;;;;;163.05;150.70;;;29.20;99.90;;;;;;5056010;28;20174;-66
2024/01/30 03:14:16;;;;;;;165.38;153.23;;;29.10;99.90;;;;;;5055673;28;20063;-64
2024/01/30 03:16:42;;;;;;;168.48;155.15;;;29.00;99.90;;;;;;5055741;28;20490;-63
2024/01/30 03:19:09;;;;;;;210.02;194.90;;;29.00;99.90;;;;;;5056013;28;20462;-66
2024/01/30 03:21:36;;;;;;;195.27;181.50;;;28.80;99.90;;;;;;5055593;28;20036;-67
2024/01/30 03:24:02;;;;;;;185.52;172.50;;;28.60;99.90;;;;;;5055606;28;20478;-70
2024/01/30 03:26:29;;;;;;;180.65;167.90;;;28.60;99.90;;;;;;5055636;28;20033;-66
2024/01/30 03:28:55;;;;;;;253.00;234.55;;;28.50;99.90;;;;;;5055898;28;20112;-69
2024/01/30 03:31:22;;;;;;;213.73;198.27;;;28.50;99.90;;;;;;5055552;28;20445;-66
2024/01/30 03:33:48;;;;;;;304.83;280.65;;;28.50;99.90;;;;;;5055608;28;20531;-67
2024/01/30 03:36:16;;;;;;;322.30;297.08;;;28.50;99.90;;;;;;5056626;28;20108;-67
2024/01/30 03:38:43;;;;;;;394.02;361.88;;;28.50;99.90;;;;;;5056634;28;20025;-67
2024/01/30 03:41:10;;;;;;;267.63;246.63;;;28.60;99.90;;;;;;5056862;28;20075;-67
2024/01/30 03:43:37;;;;;;;435.02;397.40;;;28.60;99.90;;;;;;5047033;28;20433;-66
2024/01/30 03:46:03;;;;;;;428.25;390.85;;;28.70;99.90;;;;;;5035486;28;20525;-66
2024/01/30 03:48:30;;;;;;;468.75;428.42;;;28.90;99.90;;;;;;5035205;28;20386;-66
2024/01/30 03:50:57;;;;;;;432.77;396.15;;;29.00;99.90;;;;;;5035145;28;20446;-67
2024/01/30 03:53:23;;;;;;;472.25;432.20;;;29.20;99.90;;;;;;5035321;28;20032;-63
2024/01/30 03:55:50;;;;;;;298.08;273.48;;;29.30;99.90;;;;;;5034965;28;20029;-65
2024/01/30 03:58:16;;;;;;;253.82;233.88;;;29.40;99.90;;;;;;5052007;28;20013;-66
2024/01/30 04:00:43;;;;;;;239.43;221.13;;;29.40;99.90;;;;;;5053872;28;20470;-66
2024/01/30 04:03:09;;;;;;;222.65;206.10;;;29.50;99.90;;;;;;5055505;28;20028;-64
2024/01/30 04:05:36;;;;;;;200.20;185.77;;;29.70;99.90;;;;;;5055817;28;20082;-65
2024/01/30 04:08:02;;;;;;;203.27;188.52;;;29.70;99.90;;;;;;5055253;28;20565;-65
2024/01/30 04:10:29;;;;;;;176.20;163.57;;;29.80;99.90;;;;;;5037903;28;20083;-66
2024/01/30 04:12:55;;;;;;;186.75;173.27;;;29.80;99.90;;;;;;5035171;28;20021;-66
2024/01/30 04:15:22;;;;;;;185.85;171.95;;;29.70;99.90;;;;;;5036206;28;20049;-65
2024/01/30 04:17:48;;;;;;;175.57;163.02;;;29.60;99.90;;;;;;5036412;28;20014;-65
2024/01/30 04:20:16;;;;;;;176.60;163.50;;;29.50;99.90;;;;;;5035026;28;20105;-64
2024/01/30 04:22:44;;;;;;;170.13;157.63;;;29.50;99.90;;;;;;5034818;28;20060;-66
2024/01/30 04:25:12;;;;;;;166.30;153.65;;;29.50;99.90;;;;;;5034473;28;20113;-65
2024/01/30 04:27:38;;;;;;;172.63;160.10;;;29.50;99.90;;;;;;5034476;28;20030;-68
2024/01/30 04:30:05;;;;;;;190.07;176.23;;;29.50;99.90;;;;;;5035126;28;20041;-65
2024/01/30 04:32:32;;;;;;;190.38;176.60;;;29.50;99.90;;;;;;5035092;28;20029;-66
2024/01/30 04:34:59;;;;;;;173.45;161.20;;;29.50;99.90;;;;;;5034921;28;20489;-65
2024/01/30 04:37:25;;;;;;;181.10;168.07;;;29.50;99.90;;;;;;5034722;28;20030;-66
2024/01/30 04:39:52;;;;;;;165.43;153.38;;;29.70;99.90;;;;;;5034384;28;20041;-66
2024/01/30 04:42:18;;;;;;;170.32;158.60;;;29.80;99.90;;;;;;5034450;28;20017;-68
2024/01/30 04:44:45;;;;;;;181.52;168.38;;;30.00;99.90;;;;;;5036129;28;20021;-65
2024/01/30 04:47:12;;;;;;;152.60;141.60;;;30.10;99.90;;;;;;5035018;28;20405;-66
2024/01/30 04:49:39;;;;;;;157.93;146.55;;;30.20;99.90;;;;;;5034802;28;20079;-65
2024/01/30 04:52:06;;;;;;;141.55;131.68;;;30.30;99.90;;;;;;5034754;28;20017;-68
2024/01/30 04:54:34;;;;;;;134.80;125.07;;;30.40;99.90;;;;;;5034409;28;20025;-68
2024/01/30 04:57:01;;;;;;;130.35;120.22;;;30.40;99.90;;;;;;5053548;28;20103;-67
2024/01/30 04:59:28;;;;;;;103.60;96.00;;;30.50;99.90;;;;;;5054427;28;20032;-67
2024/01/30 05:01:54;;;;;;;96.18;89.10;;;30.60;99.90;;;;;;5054735;28;20076;-68
2024/01/30 05:04:22;;;;;;;121.00;111.80;;;30.60;99.90;;;;;;5054509;28;20021;-67
2024/01/30 05:06:48;;;;;;;120.60;111.78;;;30.60;99.90;;;;;;5054037;28;20033;-66
2024/01/30 05:09:15;;;;;;;88.95;82.03;;;30.70;99.90;;;;;;5053960;28;20092;-69
2024/01/30 05:11:42;;;;;;;97.70;90.22;;;30.80;99.90;;;;;;5039871;28;20041;-67
2024/01/30 05:14:09;;;;;;;91.22;84.35;;;30.80;99.90;;;;;;5033923;28;20028;-67
2024/01/30 05:16:35;;;;;;;82.18;75.65;;;30.70;99.90;;;;;;5033805;28;20034;-65
2024/01/30 05:19:02;;;;;;;82.43;75.80;;;30.80;99.90;;;;;;5033902;28;20021;-69
2024/01/30 05:21:28;;;;;;;72.95;66.65;;;30.90;99.90;;;;;;5033999;28;20451;-66
2024/01/30 05:23:55;;;;;;;69.78;64.18;;;31.00;99.90;;;;;;5034116;28;20029;-66
2024/01/30 05:26:22;;;;;;;64.57;58.20;;;31.10;99.90;;;;;;5033833;28;20171;-64
2024/01/30 05:28:49;;;;;;;67.53;61.63;;;31.00;99.90;;;;;;5033892;28;20042;-65
2024/01/30 05:31:16;;;;;;;66.45;60.90;;;31.00;99.90;;;;;;5033481;28;20026;-67
2024/01/30 05:33:42;;;;;;;67.63;62.17;;;30.90;99.90;;;;;;5033298;28;20025;-65
2024/01/30 05:36:11;;;;;;;67.45;61.58;;;30.90;99.90;;;;;;5033727;28;20021;-66
2024/01/30 05:38:38;;;;;;;71.18;65.25;;;30.80;99.90;;;;;;5033924;28;20128;-68
2024/01/30 05:41:04;;;;;;;82.15;75.95;;;30.50;99.90;;;;;;5033889;28;20057;-67
2024/01/30 05:43:31;;;;;;;91.97;85.43;;;30.30;99.90;;;;;;5033770;28;20037;-67
2024/01/30 05:45:57;;;;;;;124.55;116.18;;;30.10;99.90;;;;;;5044456;28;20021;-71
2024/01/30 05:48:24;;;;;;;113.97;106.20;;;29.80;99.90;;;;;;5042235;28;20033;-69
2024/01/30 05:50:50;;;;;;;163.95;153.05;;;29.40;99.90;;;;;;5043966;28;20290;-66
2024/01/30 05:53:17;;;;;;;162.35;151.23;;;29.10;99.90;;;;;;5039990;28;20029;-64
2024/01/30 05:55:43;;;;;;;225.63;209.68;;;28.90;99.90;;;;;;5036344;28;20535;-65
2024/01/30 05:58:10;;;;;;;222.02;205.65;;;28.80;99.90;;;;;;5036350;28;20021;-66
2024/01/30 06:00:36;;;;;;;218.77;202.05;;;28.80;99.90;;;;;;5034041;28;20018;-66
2024/01/30 06:03:03;;;;;;;256.77;237.40;;;28.80;99.90;;;;;;5034342;28;20478;-66
2024/01/30 06:05:29;;;;;;;204.63;190.05;;;28.90;99.90;;;;;;5051623;28;20083;-66
2024/01/30 06:07:56;;;;;;;239.10;222.00;;;28.70;99.90;;;;;;5051592;28;20511;-66
2024/01/30 06:10:22;;;;;;;212.98;197.98;;;28.60;99.90;;;;;;5051006;28;20032;-67
2024/01/30 06:12:49;;;;;;;200.60;186.82;;;28.60;99.90;;;;;;5050796;28;20064;-66
2024/01/30 06:15:15;;;;;;;198.10;184.20;;;28.50;99.90;;;;;;5051158;28;20533;-66
2024/01/30 06:17:42;;;;;;;206.32;191.48;;;28.50;99.90;;;;;;5051095;28;20100;-65
2024/01/30 06:20:08;;;;;;;205.65;191.18;;;28.50;99.90;;;;;;5046017;28;20374;-69
2024/01/30 06:22:35;;;;;;;197.45;183.60;;;28.50;99.90;;;;;;5033737;28;20023;-67
2024/01/30 06:25:02;;;;;;;218.32;203.05;;;28.50;99.90;;;;;;5033900;28;20017;-66
2024/01/30 06:27:28;;;;;;;209.25;194.85;;;28.50;99.90;;;;;;5033895;28;20096;-65
2024/01/30 06:29:55;;;;;;;191.85;178.13;;;28.50;99.90;;;;;;5034126;28;20463;-66
2024/01/30 06:32:21;;;;;;;211.80;196.38;;;28.50;99.90;;;;;;5035727;28;20080;-66
2024/01/30 06:34:48;;;;;;;215.65;200.52;;;28.60;99.90;;;;;;5049268;28;20381;-67
2024/01/30 06:37:17;;;;;;;193.40;179.43;;;28.60;99.90;;;;;;5049797;28;20021;-67
2024/01/30 06:39:44;;;;;;;220.60;204.43;;;28.60;99.90;;;;;;5049473;28;20553;-66
2024/01/30 06:42:11;;;;;;;200.15;185.85;;;28.70;99.90;;;;;;5046846;28;20076;-66
2024/01/30 06:44:38;;;;;;;182.65;169.57;;;28.60;99.90;;;;;;5045115;28;20607;-66
2024/01/30 06:47:04;;;;;;;188.65;174.85;;;28.70;99.90;;;;;;5045002;28;20079;-67
2024/01/30 06:49:31;;;;;;;173.30;160.75;;;28.70;99.90;;;;;;5047223;28;20021;-65
2024/01/30 06:51:57;;;;;;;190.88;176.88;;;28.70;99.90;;;;;;5046346;28;20040;-65
2024/01/30 06:54:24;;;;;;;190.18;176.77;;;28.80;99.90;;;;;;5046521;28;20048;-67
2024/01/30 06:56:51;;;;;;;170.75;158.90;;;28.80;99.90;;;;;;5045598;28;20028;-67
2024/01/30 06:59:17;;;;;;;217.02;201.75;;;28.90;99.90;;;;;;5046032;28;20029;-67
2024/01/30 07:01:43;;;;;;;187.88;174.50;;;28.90;99.90;;;;;;5044985;28;20013;-67
2024/01/30 07:04:10;;;;;;;182.50;169.40;;;28.90;99.90;;;;;;5045695;28;20424;-68
2024/01/30 07:06:36;;;;;;;197.70;184.10;;;29.00;99.90;;;;;;5045692;28;20048;-66
2024/01/30 07:09:03;;;;;;;184.15;171.63;;;29.10;99.90;;;;;;5046242;28;20045;-66
2024/01/30 07:11:29;;;;;;;186.10;173.10;;;29.10;99.90;;;;;;5044772;28;20057;-67
2024/01/30 07:13:56;;;;;;;177.98;165.60;;;29.10;99.90;;;;;;5045709;28;20104;-65
2024/01/30 07:16:23;;;;;;;199.95;185.80;;;29.20;99.90;;;;;;5046188;28;20122;-66
2024/01/30 07:18:49;;;;;;;176.95;164.50;;;29.30;99.90;;;;;;5044395;28;20025;-68
2024/01/30 07:21:16;;;;;;;170.63;158.45;;;29.20;99.90;;;;;;5047894;28;20029;-66
2024/01/30 07:23:43;;;;;;;190.07;176.77;;;29.30;99.90;;;;;;5047397;28;20448;-67
2024/01/30 07:26:10;;;;;;;160.70;149.35;;;29.40;99.90;;;;;;5046254;28;20028;-66
2024/01/30 07:28:36;;;;;;;155.55;144.20;;;29.40;99.90;;;;;;5044796;28;20017;-67
2024/01/30 07:31:03;;;;;;;168.73;157.00;;;29.50;99.90;;;;;;5044651;28;20025;-67
2024/01/30 07:33:29;;;;;;;170.30;158.75;;;29.60;99.90;;;;;;5045936;28;20386;-66
2024/01/30 07:35:56;;;;;;;168.35;156.30;;;29.70;99.90;;;;;;5044739;28;20463;-67
2024/01/30 07:38:22;;;;;;;189.05;176.13;;;29.70;99.90;;;;;;5044529;28;20032;-68
2024/01/30 07:40:50;;;;;;;189.95;176.55;;;29.80;99.90;;;;;;5046256;28;20255;-68
2024/01/30 07:43:16;;;;;;;171.63;159.43;;;29.80;99.90;;;;;;5045051;28;20017;-66
2024/01/30 07:45:43;;;;;;;177.20;165.13;;;29.80;99.90;;;;;;5043965;28;20021;-67
2024/01/30 07:48:09;;;;;;;148.85;138.52;;;29.80;99.90;;;;;;5045149;28;20119;-66
2024/01/30 07:50:36;;;;;;;121.60;113.28;;;29.80;99.90;;;;;;5047449;28;20028;-67
2024/01/30 07:53:03;;;;;;;106.38;98.78;;;29.90;99.90;;;;;;5045616;28;20029;-67
2024/01/30 07:55:31;;;;;;;114.60;106.78;;;29.90;99.90;;;;;;5045270;28;20056;-67
2024/01/30 07:57:58;;;;;;;128.98;120.32;;;30.00;99.90;;;;;;5046880;28;20017;-67
2024/01/30 08:00:25;;;;;;;108.72;101.28;;;30.10;99.90;;;;;;5045815;28;20022;-67
2024/01/30 08:02:55;;;;;;;107.47;99.80;;;30.10;99.90;;;;;;5083075;22;20135;-66
2024/01/30 08:05:23;;;;;;;91.60;85.05;;;30.20;99.90;;;;;;5067402;28;20050;-67
2024/01/30 08:07:50;;;;;;;87.25;80.88;;;30.10;99.90;;;;;;5067020;28;20036;-67
2024/01/30 08:10:18;;;;;;;79.30;73.55;;;30.20;99.90;;;;;;5060827;28;20043;-66
2024/01/30 08:12:45;;;;;;;83.78;77.47;;;30.10;99.90;;;;;;5069064;28;20504;-66
2024/01/30 08:15:13;;;;;;;69.65;63.45;;;30.10;99.90;;;;;;5070059;28;20138;-70
2024/01/30 08:17:39;;;;;;;63.88;58.42;;;30.00;99.90;;;;;;5068996;28;20025;-66
2024/01/30 08:20:08;;;;;;;155.25;144.52;;;29.70;99.90;;;;;;5069160;28;20017;-66
2024/01/30 08:22:35;;;;;;;151.88;140.68;;;29.70;99.90;;;;;;5069326;28;20028;-67
2024/01/30 08:25:01;;;;;;;125.85;116.63;;;29.70;99.90;;;;;;5081822;22;20106;-67
2024/01/30 08:27:28;;;;;;;143.57;133.50;;;29.70;99.90;;;;;;5060058;28;20017;-66
2024/01/30 08:29:54;;;;;;;135.35;125.47;;;29.70;99.90;;;;;;5060015;28;20066;-67
2024/01/30 08:32:21;;;;;;;128.85;118.88;;;29.70;99.90;;;;;;5050917;28;20056;-67
2024/01/30 08:34:47;;;;;;;122.07;112.20;;;29.70;99.90;;;;;;5043669;28;20017;-67
2024/01/30 08:37:16;;;;;;;148.93;138.20;;;29.80;99.90;;;;;;5039419;28;20048;-66
2024/01/30 08:39:44;;;;;;;162.38;150.43;;;29.80;99.90;;;;;;5039462;28;20025;-65
2024/01/30 08:42:11;;;;;;;165.30;152.95;;;29.80;99.90;;;;;;5038854;28;20021;-65
2024/01/30 08:44:38;;;;;;;83.43;76.78;;;29.80;99.90;;;;;;5043084;28;20032;-65
2024/01/30 08:47:05;;;;;;;96.22;88.13;;;29.80;99.90;;;;;;5051361;28;20032;-64
2024/01/30 08:49:31;;;;;;;119.07;109.90;;;29.80;99.90;;;;;;5051068;28;20044;-65
2024/01/30 08:51:58;;;;;;;114.07;105.55;;;29.90;99.90;;;;;;5051010;28;20036;-65
2024/01/30 08:54:24;;;;;;;95.68;88.28;;;29.90;99.90;;;;;;5050759;28;20108;-65
2024/01/30 08:56:53;;;;;;;93.25;85.63;;;29.90;99.90;;;;;;5050797;28;20036;-64
2024/01/30 08:59:19;;;;;;;86.53;79.72;;;29.90;99.90;;;;;;5050142;28;20036;-65
2024/01/30 09:01:46;;;;;;;80.93;74.05;;;29.90;99.90;;;;;;5034998;28;20067;-65
2024/01/30 09:04:13;;;;;;;86.45;80.07;;;29.80;99.90;;;;;;5036434;28;20117;-65
2024/01/30 09:06:39;;;;;;;74.35;69.13;;;29.70;99.90;;;;;;5041584;28;20028;-66
2024/01/30 09:09:06;;;;;;;75.38;69.25;;;29.50;99.90;;;;;;5041886;28;20492;-65
2024/01/30 09:11:32;;;;;;;84.70;78.85;;;29.30;99.90;;;;;;5042329;28;20057;-71
2024/01/30 09:13:59;;;;;;;94.65;88.18;;;29.20;99.90;;;;;;5043643;28;20481;-65
2024/01/30 09:16:25;;;;;;;143.82;134.32;;;29.10;99.90;;;;;;5041938;28;20100;-65
2024/01/30 09:18:52;;;;;;;175.45;163.93;;;29.00;99.90;;;;;;5042658;28;20363;-65
2024/01/30 09:21:18;;;;;;;164.55;153.10;;;28.90;99.90;;;;;;5041212;28;20109;-68
2024/01/30 09:23:45;;;;;;;210.65;196.88;;;28.90;99.90;;;;;;5041102;28;20442;-66
2024/01/30 09:26:12;;;;;;;197.35;184.35;;;28.80;99.90;;;;;;5041043;28;20020;-66
2024/01/30 09:28:42;;;;;;;199.00;185.77;;;28.80;99.90;;;;;;5041147;28;20095;-65
2024/01/30 09:31:11;;;;;;;218.63;203.82;;;28.80;99.90;;;;;;5041367;28;20038;-67
2024/01/30 09:33:38;;;;;;;222.77;207.88;;;28.70;99.90;;;;;;5045882;28;20436;-67
2024/01/30 09:36:06;;;;;;;231.65;216.05;;;28.70;99.90;;;;;;5041751;28;20505;-68
2024/01/30 09:38:33;;;;;;;301.00;276.42;;;28.70;99.90;;;;;;5046774;28;20021;-69
2024/01/30 09:41:03;;;;;;;261.38;240.65;;;28.80;99.90;;;;;;5053022;28;20032;-69
2024/01/30 09:43:36;;;;;;;347.08;311.98;;;28.80;99.90;;;;;;5053161;28;20029;-69
2024/01/30 09:46:03;;;;;;;309.05;283.83;;;28.70;99.90;;;;;;5044480;28;20041;-66
2024/01/30 09:48:32;;;;;;;292.77;270.13;;;28.80;99.90;;;;;;5041658;28;20470;-68
2024/01/30 09:50:59;;;;;;;288.42;264.70;;;28.80;99.90;;;;;;5042122;28;20359;-67
2024/01/30 09:53:25;;;;;;;242.23;224.45;;;28.80;99.90;;;;;;5043536;28;20351;-70
2024/01/30 09:55:52;;;;;;;273.90;254.52;;;28.80;99.90;;;;;;5048183;28;20021;-71
2024/01/30 09:58:18;;;;;;;238.90;221.75;;;28.80;99.90;;;;;;5046178;28;20021;-65
2024/01/30 10:00:45;;;;;;;233.10;217.25;;;28.80;99.90;;;;;;5031146;28;20484;-66
2024/01/30 10:03:14;;;;;;;244.95;228.02;;;28.80;99.90;;;;;;5051473;28;20032;-65
2024/01/30 10:05:41;;;;;;;211.73;197.27;;;28.80;99.90;;;;;;5053201;28;20025;-64
2024/01/30 10:08:08;;;;;;;206.98;192.15;;;28.80;99.90;;;;;;5053167;28;20025;-65
2024/01/30 10:10:35;;;;;;;200.23;186.18;;;28.80;99.90;;;;;;5044352;28;20367;-65
2024/01/30 10:13:02;;;;;;;206.40;191.98;;;28.70;99.90;;;;;;5041762;28;20028;-65
2024/01/30 10:15:29;;;;;;;206.52;192.25;;;28.60;99.90;;;;;;5042631;28;20074;-65
2024/01/30 10:17:56;;;;;;;212.45;197.38;;;28.60;99.90;;;;;;5051920;28;20021;-65
2024/01/30 10:20:24;;;;;;;218.63;202.95;;;28.60;99.90;;;;;;5050990;28;20039;-65
2024/01/30 10:22:51;;;;;;;198.90;184.75;;;28.50;99.90;;;;;;5056532;28;20021;-65
2024/01/30 10:25:18;;;;;;;187.20;173.57;;;28.50;99.90;;;;;;5056503;28;20021;-66
2024/01/30 10:27:45;;;;;;;188.77;175.25;;;28.50;99.90;;;;;;5055796;28;20369;-65
2024/01/30 10:30:11;;;;;;;204.65;189.52;;;28.50;99.90;;;;;;5057101;28;20021;-65
2024/01/30 10:32:38;;;;;;;222.07;206.45;;;28.50;99.90;;;;;;5056532;28;20049;-66
2024/01/30 10:35:05;;;;;;;205.43;189.63;;;28.50;99.90;;;;;;5056692;28;20437;-65
2024/01/30 10:37:32;;;;;;;196.75;182.00;;;28.50;99.90;;;;;;5056400;28;20039;-65
2024/01/30 10:40:05;;;;;;;207.70;192.50;;;28.50;99.90;;;;;;5055012;28;20029;-65
2024/01/30 10:42:33;;;;;;;194.23;180.13;;;28.50;99.90;;;;;;5047017;28;20025;-65
2024/01/30 10:45:06;;;;;;;322.52;290.88;;;28.50;99.90;;;;;;5049772;28;20021;-64
2024/01/30 10:47:37;;;;;;;273.33;251.05;;;28.60;99.90;;;;;;5047118;28;20025;-64
2024/01/30 10:50:04;;;;;;;298.45;272.85;;;28.50;99.90;;;;;;5046088;28;20037;-65
2024/01/30 10:52:32;;;;;;;211.75;195.70;;;28.50;99.90;;;;;;5046975;28;20029;-64
2024/01/30 10:55:00;;;;;;;196.10;182.02;;;28.50;99.90;;;;;;5044192;28;20026;-65
2024/01/30 10:57:27;;;;;;;205.93;190.82;;;28.50;99.90;;;;;;5054333;28;20029;-64
2024/01/30 10:59:58;;;;;;;213.90;198.25;;;28.50;99.90;;;;;;5047577;28;20389;-66
2024/01/30 11:02:25;;;;;;;209.45;194.25;;;28.50;99.90;;;;;;5044967;28;20029;-65
2024/01/30 11:04:58;;;;;;;255.57;237.52;;;28.50;99.90;;;;;;5045110;28;20486;-65
2024/01/30 11:07:27;;;;;;;237.88;220.52;;;28.50;99.90;;;;;;5045164;28;20028;-65
2024/01/30 11:10:00;;;;;;;294.08;269.98;;;28.50;99.90;;;;;;5044952;28;20028;-64
2024/01/30 11:12:28;;;;;;;300.73;275.00;;;28.50;99.90;;;;;;5046456;28;20025;-66
2024/01/30 11:15:06;;;;;;;317.23;290.20;;;28.50;99.90;;;;;;5044588;28;20033;-67
2024/01/30 11:17:52;;;;;;;316.13;289.02;;;28.50;99.90;;;;;;5049467;28;20103;-66
2024/01/30 11:20:31;;;;;;;287.63;262.92;;;28.50;99.90;;;;;;5045393;28;20025;-69
2024/01/30 11:22:59;;;;;;;275.30;252.02;;;28.50;99.90;;;;;;5045065;28;20045;-69
2024/01/30 11:25:26;;;;;;;286.15;262.60;;;28.40;99.90;;;;;;5049875;28;20473;-70
2024/01/30 11:27:54;;;;;;;321.00;293.95;;;28.40;99.90;;;;;;5045360;28;20061;-66
2024/01/30 11:30:32;;;;;;;312.65;286.13;;;28.40;99.90;;;;;;5044721;28;20458;-72
2024/01/30 11:33:04;;;;;;;333.65;307.38;;;28.40;99.90;;;;;;5044453;28;20033;-69
2024/01/30 11:35:33;;;;;;;342.42;314.20;;;28.40;99.90;;;;;;5045674;28;20032;-68
2024/01/30 11:38:00;;;;;;;335.50;308.98;;;28.40;99.90;;;;;;5043772;28;20232;-68
2024/01/30 11:40:30;;;;;;;377.05;347.30;;;28.30;99.90;;;;;;5045077;28;20092;-67
2024/01/30 11:42:58;;;;;;;362.30;333.10;;;28.30;99.90;;;;;;5045997;28;20115;-65
2024/01/30 11:45:26;;;;;;;374.38;343.77;;;28.20;99.90;;;;;;5046850;28;20021;-65
2024/01/30 11:47:53;;;;;;;404.65;371.23;;;28.20;99.90;;;;;;5045735;28;20479;-64
2024/01/30 11:50:21;;;;;;;404.85;370.73;;;28.20;99.90;;;;;;5046463;28;20035;-68
2024/01/30 11:52:48;;;;;;;429.15;391.95;;;28.20;99.90;;;;;;5045998;28;20020;-67
2024/01/30 11:55:15;;;;;;;370.30;338.63;;;28.10;99.90;;;;;;5047210;28;20029;-68
2024/01/30 11:57:44;;;;;;;380.45;347.00;;;28.10;99.90;;;;;;5045197;28;20052;-68
2024/01/30 12:00:18;;;;;;;399.40;364.05;;;28.10;99.90;;;;;;5045876;28;20034;-68
2024/01/30 12:02:49;;;;;;;436.80;397.92;;;28.20;99.90;;;;;;5035796;28;20029;-69
2024/01/30 12:05:16;;;;;;;383.27;348.30;;;28.20;99.90;;;;;;5043609;28;20025;-71
2024/01/30 12:07:46;;;;;;;397.90;361.65;;;28.30;99.90;;;;;;5044660;28;20025;-70
2024/01/30 12:10:14;;;;;;;426.27;387.17;;;28.20;99.90;;;;;;5044137;28;20024;-70